sensor_id;sensor_type;location;lat;lon;timestamp;P1;durP1;ratioP1;P2;durP2;ratioP2
15699;SDS011;7950;42.744;23.174;2022-08-05T00:00:16;5.10;;;4.70;;
15699;SDS011;7950;42.744;23.174;2022-08-05T00:02:48;5.60;;;5.00;;
15699;SDS011;7950;42.744;23.174;2022-08-05T00:05:18;6.87;;;4.60;;
15699;SDS011;7950;42.744;23.174;2022-08-05T00:08:07;5.60;;;4.70;;
15699;SDS011;7950;42.744;23.174;2022-08-05T00:10:57;5.27;;;4.70;;
15699;SDS011;7950;42.744;23.174;2022-08-05T00:13:29;5.43;;;4.93;;
15699;SDS011;7950;42.744;23.174;2022-08-05T00:16:06;5.77;;;5.17;;
15699;SDS011;7950;42.744;23.174;2022-08-05T00:21:31;5.03;;;4.60;;
15699;SDS011;7950;42.744;23.174;2022-08-05T00:24:01;5.33;;;4.83;;
15699;SDS011;7950;42.744;23.174;2022-08-05T00:26:38;6.33;;;4.97;;
15699;SDS011;7950;42.744;23.174;2022-08-05T00:29:17;6.50;;;5.27;;
15699;SDS011;7950;42.744;23.174;2022-08-05T00:31:48;5.37;;;4.87;;
15699;SDS011;7950;42.744;23.174;2022-08-05T00:34:36;6.30;;;4.80;;
15699;SDS011;7950;42.744;23.174;2022-08-05T00:37:28;5.37;;;4.87;;
15699;SDS011;7950;42.744;23.174;2022-08-05T00:40:17;5.60;;;5.10;;
15699;SDS011;7950;42.744;23.174;2022-08-05T00:42:55;5.27;;;4.70;;
15699;SDS011;7950;42.744;23.174;2022-08-05T00:45:26;4.87;;;4.47;;
15699;SDS011;7950;42.744;23.174;2022-08-05T00:48:04;5.20;;;4.70;;
15699;SDS011;7950;42.744;23.174;2022-08-05T00:50:35;5.23;;;4.70;;
15699;SDS011;7950;42.744;23.174;2022-08-05T00:53:07;5.27;;;4.80;;
15699;SDS011;7950;42.744;23.174;2022-08-05T00:55:56;7.83;;;5.17;;
15699;SDS011;7950;42.744;23.174;2022-08-05T00:58:26;5.30;;;4.80;;
15699;SDS011;7950;42.744;23.174;2022-08-05T01:00:55;5.43;;;4.93;;
15699;SDS011;7950;42.744;23.174;2022-08-05T01:03:25;5.80;;;5.23;;
15699;SDS011;7950;42.744;23.174;2022-08-05T01:06:00;5.33;;;4.83;;
15699;SDS011;7950;42.744;23.174;2022-08-05T01:08:31;7.43;;;4.80;;
15699;SDS011;7950;42.744;23.174;2022-08-05T01:14:09;4.97;;;4.53;;
15699;SDS011;7950;42.744;23.174;2022-08-05T01:16:56;6.37;;;4.83;;
15699;SDS011;7950;42.744;23.174;2022-08-05T01:19:34;5.30;;;4.80;;
15699;SDS011;7950;42.744;23.174;2022-08-05T01:22:30;7.83;;;5.10;;
15699;SDS011;7950;42.744;23.174;2022-08-05T01:25:28;5.17;;;4.67;;
15699;SDS011;7950;42.744;23.174;2022-08-05T01:28:25;5.83;;;4.43;;
15699;SDS011;7950;42.744;23.174;2022-08-05T01:31:06;5.30;;;4.80;;
15699;SDS011;7950;42.744;23.174;2022-08-05T01:33:44;6.07;;;5.00;;
15699;SDS011;7950;42.744;23.174;2022-08-05T01:36:21;5.10;;;4.63;;
15699;SDS011;7950;42.744;23.174;2022-08-05T01:38:55;5.73;;;5.20;;
15699;SDS011;7950;42.744;23.174;2022-08-05T01:41:28;5.83;;;5.03;;
15699;SDS011;7950;42.744;23.174;2022-08-05T01:44:04;5.57;;;4.90;;
15699;SDS011;7950;42.744;23.174;2022-08-05T01:46:36;5.77;;;4.90;;
15699;SDS011;7950;42.744;23.174;2022-08-05T01:52:27;5.73;;;5.23;;
15699;SDS011;7950;42.744;23.174;2022-08-05T01:55:01;5.50;;;5.00;;
15699;SDS011;7950;42.744;23.174;2022-08-05T01:57:36;5.93;;;4.97;;
15699;SDS011;7950;42.744;23.174;2022-08-05T02:00:30;5.43;;;4.93;;
15699;SDS011;7950;42.744;23.174;2022-08-05T02:03:03;5.57;;;5.07;;
15699;SDS011;7950;42.744;23.174;2022-08-05T02:06:10;4.87;;;4.30;;
15699;SDS011;7950;42.744;23.174;2022-08-05T02:08:59;5.30;;;4.80;;
15699;SDS011;7950;42.744;23.174;2022-08-05T02:11:31;4.97;;;4.47;;
15699;SDS011;7950;42.744;23.174;2022-08-05T02:14:19;7.60;;;5.10;;
15699;SDS011;7950;42.744;23.174;2022-08-05T02:17:01;7.23;;;4.47;;
15699;SDS011;7950;42.744;23.174;2022-08-05T02:19:56;5.27;;;4.77;;
15699;SDS011;7950;42.744;23.174;2022-08-05T02:22:30;5.10;;;4.60;;
15699;SDS011;7950;42.744;23.174;2022-08-05T02:25:07;5.57;;;5.07;;
15699;SDS011;7950;42.744;23.174;2022-08-05T02:27:43;5.63;;;5.00;;
15699;SDS011;7950;42.744;23.174;2022-08-05T02:30:26;6.47;;;5.20;;
15699;SDS011;7950;42.744;23.174;2022-08-05T02:36:24;6.00;;;4.30;;
15699;SDS011;7950;42.744;23.174;2022-08-05T02:38:57;5.50;;;4.90;;
15699;SDS011;7950;42.744;23.174;2022-08-05T02:41:34;5.10;;;4.70;;
15699;SDS011;7950;42.744;23.174;2022-08-05T02:44:24;5.73;;;5.07;;
15699;SDS011;7950;42.744;23.174;2022-08-05T02:46:57;5.43;;;4.93;;
15699;SDS011;7950;42.744;23.174;2022-08-05T02:49:28;8.20;;;5.10;;
15699;SDS011;7950;42.744;23.174;2022-08-05T02:52:08;5.07;;;4.67;;
15699;SDS011;7950;42.744;23.174;2022-08-05T02:54:56;6.03;;;5.40;;
15699;SDS011;7950;42.744;23.174;2022-08-05T02:57:30;5.60;;;5.10;;
15699;SDS011;7950;42.744;23.174;2022-08-05T03:00:21;5.27;;;4.87;;
15699;SDS011;7950;42.744;23.174;2022-08-05T03:02:52;6.60;;;5.00;;
15699;SDS011;7950;42.744;23.174;2022-08-05T03:05:24;5.30;;;4.80;;
15699;SDS011;7950;42.744;23.174;2022-08-05T03:08:13;5.17;;;4.77;;
15699;SDS011;7950;42.744;23.174;2022-08-05T03:10:55;5.93;;;5.13;;
15699;SDS011;7950;42.744;23.174;2022-08-05T03:13:44;5.67;;;5.07;;
15699;SDS011;7950;42.744;23.174;2022-08-05T03:16:17;5.43;;;4.93;;
15699;SDS011;7950;42.744;23.174;2022-08-05T03:18:48;5.03;;;4.63;;
15699;SDS011;7950;42.744;23.174;2022-08-05T03:21:18;5.97;;;4.63;;
15699;SDS011;7950;42.744;23.174;2022-08-05T03:23:54;6.93;;;5.80;;
15699;SDS011;7950;42.744;23.174;2022-08-05T03:26:24;5.33;;;4.83;;
15699;SDS011;7950;42.744;23.174;2022-08-05T03:28:58;5.67;;;5.17;;
15699;SDS011;7950;42.744;23.174;2022-08-05T03:31:26;5.97;;;5.30;;
15699;SDS011;7950;42.744;23.174;2022-08-05T03:34:16;5.53;;;5.03;;
15699;SDS011;7950;42.744;23.174;2022-08-05T03:36:51;7.03;;;5.60;;
15699;SDS011;7950;42.744;23.174;2022-08-05T03:39:20;5.47;;;5.00;;
15699;SDS011;7950;42.744;23.174;2022-08-05T03:41:52;6.23;;;5.63;;
15699;SDS011;7950;42.744;23.174;2022-08-05T03:44:21;7.40;;;5.70;;
15699;SDS011;7950;42.744;23.174;2022-08-05T03:46:54;5.90;;;5.30;;
15699;SDS011;7950;42.744;23.174;2022-08-05T03:49:23;6.27;;;5.40;;
15699;SDS011;7950;42.744;23.174;2022-08-05T03:52:15;5.80;;;5.30;;
15699;SDS011;7950;42.744;23.174;2022-08-05T03:55:12;6.70;;;5.30;;
15699;SDS011;7950;42.744;23.174;2022-08-05T03:58:11;5.77;;;5.27;;
15699;SDS011;7950;42.744;23.174;2022-08-05T04:00:54;6.03;;;5.50;;
15699;SDS011;7950;42.744;23.174;2022-08-05T04:03:29;6.03;;;5.43;;
15699;SDS011;7950;42.744;23.174;2022-08-05T04:06:07;6.30;;;5.43;;
15699;SDS011;7950;42.744;23.174;2022-08-05T04:08:39;6.30;;;5.77;;
15699;SDS011;7950;42.744;23.174;2022-08-05T04:11:13;6.00;;;5.33;;
15699;SDS011;7950;42.744;23.174;2022-08-05T04:14:01;5.63;;;5.23;;
15699;SDS011;7950;42.744;23.174;2022-08-05T04:16:30;5.83;;;5.23;;
15699;SDS011;7950;42.744;23.174;2022-08-05T04:19:01;5.80;;;5.30;;
15699;SDS011;7950;42.744;23.174;2022-08-05T04:21:36;5.87;;;5.37;;
15699;SDS011;7950;42.744;23.174;2022-08-05T04:24:25;6.50;;;5.67;;
15699;SDS011;7950;42.744;23.174;2022-08-05T04:26:54;6.33;;;5.47;;
15699;SDS011;7950;42.744;23.174;2022-08-05T04:29:23;7.37;;;5.27;;
15699;SDS011;7950;42.744;23.174;2022-08-05T04:31:52;5.83;;;5.00;;
15699;SDS011;7950;42.744;23.174;2022-08-05T04:34:22;7.40;;;5.17;;
15699;SDS011;7950;42.744;23.174;2022-08-05T04:36:58;7.33;;;5.50;;
15699;SDS011;7950;42.744;23.174;2022-08-05T04:39:30;5.50;;;5.00;;
15699;SDS011;7950;42.744;23.174;2022-08-05T04:42:01;5.40;;;4.93;;
15699;SDS011;7950;42.744;23.174;2022-08-05T04:44:30;5.93;;;5.43;;
15699;SDS011;7950;42.744;23.174;2022-08-05T04:46:58;6.10;;;5.20;;
15699;SDS011;7950;42.744;23.174;2022-08-05T04:49:53;5.30;;;4.80;;
15699;SDS011;7950;42.744;23.174;2022-08-05T04:52:27;5.53;;;5.03;;
15699;SDS011;7950;42.744;23.174;2022-08-05T04:55:01;7.03;;;4.83;;
15699;SDS011;7950;42.744;23.174;2022-08-05T04:57:42;6.63;;;4.63;;
15699;SDS011;7950;42.744;23.174;2022-08-05T05:00:19;5.60;;;5.10;;
15699;SDS011;7950;42.744;23.174;2022-08-05T05:02:49;5.30;;;4.80;;
15699;SDS011;7950;42.744;23.174;2022-08-05T05:05:18;5.57;;;5.07;;
15699;SDS011;7950;42.744;23.174;2022-08-05T05:07:54;6.00;;;5.43;;
15699;SDS011;7950;42.744;23.174;2022-08-05T05:10:29;6.00;;;5.00;;
15699;SDS011;7950;42.744;23.174;2022-08-05T05:12:59;11.27;;;6.00;;
15699;SDS011;7950;42.744;23.174;2022-08-05T05:15:29;9.80;;;6.33;;
15699;SDS011;7950;42.744;23.174;2022-08-05T05:18:19;10.50;;;6.80;;
15699;SDS011;7950;42.744;23.174;2022-08-05T05:21:00;13.07;;;5.93;;
15699;SDS011;7950;42.744;23.174;2022-08-05T05:23:31;11.87;;;6.27;;
15699;SDS011;7950;42.744;23.174;2022-08-05T05:26:21;9.33;;;6.03;;
15699;SDS011;7950;42.744;23.174;2022-08-05T05:28:58;29.17;;;7.27;;
15699;SDS011;7950;42.744;23.174;2022-08-05T05:31:39;7.63;;;5.73;;
15699;SDS011;7950;42.744;23.174;2022-08-05T05:34:11;6.27;;;5.67;;
15699;SDS011;7950;42.744;23.174;2022-08-05T05:36:41;7.27;;;5.80;;
15699;SDS011;7950;42.744;23.174;2022-08-05T05:39:12;6.33;;;5.83;;
15699;SDS011;7950;42.744;23.174;2022-08-05T05:44:39;7.07;;;5.70;;
15699;SDS011;7950;42.744;23.174;2022-08-05T05:47:14;6.83;;;5.23;;
15699;SDS011;7950;42.744;23.174;2022-08-05T05:49:47;7.10;;;6.30;;
15699;SDS011;7950;42.744;23.174;2022-08-05T05:52:27;7.10;;;5.67;;
15699;SDS011;7950;42.744;23.174;2022-08-05T05:55:00;5.80;;;5.30;;
15699;SDS011;7950;42.744;23.174;2022-08-05T05:57:41;6.17;;;5.30;;
15699;SDS011;7950;42.744;23.174;2022-08-05T06:00:19;6.50;;;5.90;;
15699;SDS011;7950;42.744;23.174;2022-08-05T06:02:59;6.00;;;5.47;;
15699;SDS011;7950;42.744;23.174;2022-08-05T06:05:48;6.77;;;5.80;;
15699;SDS011;7950;42.744;23.174;2022-08-05T06:08:20;7.10;;;5.30;;
15699;SDS011;7950;42.744;23.174;2022-08-05T06:10:58;6.33;;;5.70;;
15699;SDS011;7950;42.744;23.174;2022-08-05T06:13:28;6.03;;;5.43;;
15699;SDS011;7950;42.744;23.174;2022-08-05T06:16:42;12.83;;;6.03;;
15699;SDS011;7950;42.744;23.174;2022-08-05T06:19:11;9.23;;;5.63;;
15699;SDS011;7950;42.744;23.174;2022-08-05T06:22:25;5.53;;;5.03;;
15699;SDS011;7950;42.744;23.174;2022-08-05T06:24:59;5.70;;;5.10;;
15699;SDS011;7950;42.744;23.174;2022-08-05T06:27:49;13.07;;;6.97;;
15699;SDS011;7950;42.744;23.174;2022-08-05T06:30:38;6.30;;;5.53;;
15699;SDS011;7950;42.744;23.174;2022-08-05T06:33:07;15.03;;;6.47;;
15699;SDS011;7950;42.744;23.174;2022-08-05T06:35:36;11.53;;;6.37;;
15699;SDS011;7950;42.744;23.174;2022-08-05T06:38:50;10.27;;;6.47;;
15699;SDS011;7950;42.744;23.174;2022-08-05T06:41:20;8.70;;;6.20;;
15699;SDS011;7950;42.744;23.174;2022-08-05T06:43:50;7.27;;;6.10;;
15699;SDS011;7950;42.744;23.174;2022-08-05T06:46:27;6.30;;;5.70;;
15699;SDS011;7950;42.744;23.174;2022-08-05T06:48:56;16.30;;;6.20;;
15699;SDS011;7950;42.744;23.174;2022-08-05T06:51:27;7.77;;;5.80;;
15699;SDS011;7950;42.744;23.174;2022-08-05T06:53:57;9.10;;;5.60;;
15699;SDS011;7950;42.744;23.174;2022-08-05T06:56:27;7.37;;;6.17;;
15699;SDS011;7950;42.744;23.174;2022-08-05T06:59:00;6.57;;;5.87;;
15699;SDS011;7950;42.744;23.174;2022-08-05T07:01:36;6.13;;;5.43;;
15699;SDS011;7950;42.744;23.174;2022-08-05T07:04:06;8.33;;;5.90;;
15699;SDS011;7950;42.744;23.174;2022-08-05T07:06:35;6.20;;;5.53;;
15699;SDS011;7950;42.744;23.174;2022-08-05T07:09:05;6.97;;;5.60;;
15699;SDS011;7950;42.744;23.174;2022-08-05T07:11:34;8.37;;;6.33;;
15699;SDS011;7950;42.744;23.174;2022-08-05T07:14:05;5.43;;;4.93;;
15699;SDS011;7950;42.744;23.174;2022-08-05T07:16:57;7.37;;;5.57;;
15699;SDS011;7950;42.744;23.174;2022-08-05T07:19:52;6.77;;;5.27;;
15699;SDS011;7950;42.744;23.174;2022-08-05T07:22:42;6.50;;;5.17;;
15699;SDS011;7950;42.744;23.174;2022-08-05T07:25:13;5.60;;;5.00;;
15699;SDS011;7950;42.744;23.174;2022-08-05T07:28:01;5.40;;;4.90;;
15699;SDS011;7950;42.744;23.174;2022-08-05T07:30:37;7.27;;;5.17;;
15699;SDS011;7950;42.744;23.174;2022-08-05T07:33:07;7.40;;;5.20;;
15699;SDS011;7950;42.744;23.174;2022-08-05T07:35:42;6.43;;;5.20;;
15699;SDS011;7950;42.744;23.174;2022-08-05T07:38:31;5.33;;;4.83;;
15699;SDS011;7950;42.744;23.174;2022-08-05T07:41:10;6.40;;;5.10;;
15699;SDS011;7950;42.744;23.174;2022-08-05T07:44:03;9.60;;;5.60;;
15699;SDS011;7950;42.744;23.174;2022-08-05T07:46:41;6.13;;;5.53;;
15699;SDS011;7950;42.744;23.174;2022-08-05T07:49:16;5.83;;;5.23;;
15699;SDS011;7950;42.744;23.174;2022-08-05T07:51:45;6.00;;;5.27;;
15699;SDS011;7950;42.744;23.174;2022-08-05T08:00:28;6.30;;;5.20;;
15699;SDS011;7950;42.744;23.174;2022-08-05T08:02:57;5.57;;;5.13;;
15699;SDS011;7950;42.744;23.174;2022-08-05T08:05:42;7.53;;;5.10;;
15699;SDS011;7950;42.744;23.174;2022-08-05T08:08:15;5.13;;;4.73;;
15699;SDS011;7950;42.744;23.174;2022-08-05T08:10:45;5.40;;;4.90;;
15699;SDS011;7950;42.744;23.174;2022-08-05T08:13:14;5.53;;;4.33;;
15699;SDS011;7950;42.744;23.174;2022-08-05T08:15:54;4.80;;;4.50;;
15699;SDS011;7950;42.744;23.174;2022-08-05T08:18:43;5.57;;;4.50;;
15699;SDS011;7950;42.744;23.174;2022-08-05T08:21:17;5.27;;;4.83;;
15699;SDS011;7950;42.744;23.174;2022-08-05T08:23:45;5.18;;;4.28;;
15699;SDS011;7950;42.744;23.174;2022-08-05T08:26:29;6.55;;;4.05;;
15699;SDS011;7950;42.744;23.174;2022-08-05T08:28:58;7.25;;;4.57;;
15699;SDS011;7950;42.744;23.174;2022-08-05T08:31:47;4.73;;;4.33;;
15699;SDS011;7950;42.744;23.174;2022-08-05T08:34:17;5.22;;;4.53;;
15699;SDS011;7950;42.744;23.174;2022-08-05T08:36:59;6.95;;;4.45;;
15699;SDS011;7950;42.744;23.174;2022-08-05T08:39:30;8.23;;;4.30;;
15699;SDS011;7950;42.744;23.174;2022-08-05T08:42:07;4.53;;;4.10;;
15699;SDS011;7950;42.744;23.174;2022-08-05T08:44:57;6.72;;;4.30;;
15699;SDS011;7950;42.744;23.174;2022-08-05T08:47:47;5.30;;;4.45;;
15699;SDS011;7950;42.744;23.174;2022-08-05T08:50:39;4.60;;;4.20;;
15699;SDS011;7950;42.744;23.174;2022-08-05T08:53:35;4.38;;;3.97;;
15699;SDS011;7950;42.744;23.174;2022-08-05T08:56:10;6.90;;;3.40;;
15699;SDS011;7950;42.744;23.174;2022-08-05T08:58:54;4.25;;;3.22;;
15699;SDS011;7950;42.744;23.174;2022-08-05T09:01:25;6.65;;;4.07;;
15699;SDS011;7950;42.744;23.174;2022-08-05T09:03:54;6.93;;;4.20;;
15699;SDS011;7950;42.744;23.174;2022-08-05T09:06:25;4.15;;;3.85;;
15699;SDS011;7950;42.744;23.174;2022-08-05T09:08:58;5.15;;;3.83;;
15699;SDS011;7950;42.744;23.174;2022-08-05T09:11:28;5.00;;;4.05;;
15699;SDS011;7950;42.744;23.174;2022-08-05T09:14:17;5.55;;;3.90;;
15699;SDS011;7950;42.744;23.174;2022-08-05T09:17:12;5.97;;;3.33;;
15699;SDS011;7950;42.744;23.174;2022-08-05T09:20:01;4.20;;;3.67;;
15699;SDS011;7950;42.744;23.174;2022-08-05T09:25:36;6.80;;;3.40;;
15699;SDS011;7950;42.744;23.174;2022-08-05T09:28:27;3.97;;;3.42;;
15699;SDS011;7950;42.744;23.174;2022-08-05T09:31:00;3.28;;;3.08;;
15699;SDS011;7950;42.744;23.174;2022-08-05T09:33:51;3.25;;;2.97;;
15699;SDS011;7950;42.744;23.174;2022-08-05T09:36:22;4.43;;;3.53;;
15699;SDS011;7950;42.744;23.174;2022-08-05T09:38:58;4.07;;;3.00;;
15699;SDS011;7950;42.744;23.174;2022-08-05T09:41:55;5.40;;;3.47;;
15699;SDS011;7950;42.744;23.174;2022-08-05T09:44:33;3.58;;;3.05;;
15699;SDS011;7950;42.744;23.174;2022-08-05T09:47:06;4.22;;;3.42;;
15699;SDS011;7950;42.744;23.174;2022-08-05T09:49:42;3.70;;;3.40;;
15699;SDS011;7950;42.744;23.174;2022-08-05T09:52:28;3.85;;;3.05;;
15699;SDS011;7950;42.744;23.174;2022-08-05T09:55:00;3.45;;;3.15;;
15699;SDS011;7950;42.744;23.174;2022-08-05T09:57:53;3.90;;;3.45;;
15699;SDS011;7950;42.744;23.174;2022-08-05T10:00:25;4.82;;;3.28;;
15699;SDS011;7950;42.744;23.174;2022-08-05T10:02:56;3.78;;;3.47;;
15699;SDS011;7950;42.744;23.174;2022-08-05T10:05:25;5.15;;;3.70;;
15699;SDS011;7950;42.744;23.174;2022-08-05T10:07:59;3.92;;;3.53;;
15699;SDS011;7950;42.744;23.174;2022-08-05T10:10:50;3.88;;;3.50;;
15699;SDS011;7950;42.744;23.174;2022-08-05T10:13:32;4.60;;;3.55;;
15699;SDS011;7950;42.744;23.174;2022-08-05T10:16:27;3.78;;;3.38;;
15699;SDS011;7950;42.744;23.174;2022-08-05T10:19:03;5.28;;;3.80;;
15699;SDS011;7950;42.744;23.174;2022-08-05T10:21:34;5.13;;;3.80;;
15699;SDS011;7950;42.744;23.174;2022-08-05T10:24:12;4.15;;;3.78;;
15699;SDS011;7950;42.744;23.174;2022-08-05T10:26:42;3.70;;;3.40;;
15699;SDS011;7950;42.744;23.174;2022-08-05T10:29:20;10.00;;;4.25;;
15699;SDS011;7950;42.744;23.174;2022-08-05T10:32:09;4.55;;;4.20;;
15699;SDS011;7950;42.744;23.174;2022-08-05T10:34:58;3.95;;;3.65;;
15699;SDS011;7950;42.744;23.174;2022-08-05T10:37:28;5.00;;;3.97;;
15699;SDS011;7950;42.744;23.174;2022-08-05T10:40:13;6.07;;;4.20;;
15699;SDS011;7950;42.744;23.174;2022-08-05T10:42:55;6.10;;;3.95;;
15699;SDS011;7950;42.744;23.174;2022-08-05T10:45:31;7.15;;;4.25;;
15699;SDS011;7950;42.744;23.174;2022-08-05T10:51:20;3.65;;;3.35;;
15699;SDS011;7950;42.744;23.174;2022-08-05T10:53:55;4.72;;;4.00;;
15699;SDS011;7950;42.744;23.174;2022-08-05T10:56:47;4.03;;;3.67;;
15699;SDS011;7950;42.744;23.174;2022-08-05T10:59:18;4.50;;;4.10;;
15699;SDS011;7950;42.744;23.174;2022-08-05T11:02:15;3.85;;;3.53;;
15699;SDS011;7950;42.744;23.174;2022-08-05T11:05:04;4.65;;;4.22;;
15699;SDS011;7950;42.744;23.174;2022-08-05T11:10:54;8.75;;;4.40;;
15699;SDS011;7950;42.744;23.174;2022-08-05T11:14:10;5.85;;;4.18;;
15699;SDS011;7950;42.744;23.174;2022-08-05T11:16:39;4.32;;;3.80;;
15699;SDS011;7950;42.744;23.174;2022-08-05T11:19:25;4.40;;;3.92;;
15699;SDS011;7950;42.744;23.174;2022-08-05T11:28:40;7.15;;;4.25;;
15699;SDS011;7950;42.744;23.174;2022-08-05T11:34:24;5.07;;;3.83;;
15699;SDS011;7950;42.744;23.174;2022-08-05T11:40:57;4.47;;;3.95;;
15699;SDS011;7950;42.744;23.174;2022-08-05T11:43:54;4.07;;;3.75;;
15699;SDS011;7950;42.744;23.174;2022-08-05T11:46:34;5.03;;;3.92;;
15699;SDS011;7950;42.744;23.174;2022-08-05T11:49:26;5.63;;;4.10;;
15699;SDS011;7950;42.744;23.174;2022-08-05T11:52:01;5.05;;;4.22;;
15699;SDS011;7950;42.744;23.174;2022-08-05T11:54:37;4.35;;;4.03;;
15699;SDS011;7950;42.744;23.174;2022-08-05T11:57:07;4.20;;;3.80;;
15699;SDS011;7950;42.744;23.174;2022-08-05T11:59:51;5.53;;;3.88;;
15699;SDS011;7950;42.744;23.174;2022-08-05T12:02:23;5.40;;;4.00;;
15699;SDS011;7950;42.744;23.174;2022-08-05T12:04:58;4.40;;;4.00;;
15699;SDS011;7950;42.744;23.174;2022-08-05T12:07:44;4.72;;;3.88;;
15699;SDS011;7950;42.744;23.174;2022-08-05T12:10:34;6.40;;;4.30;;
15699;SDS011;7950;42.744;23.174;2022-08-05T12:13:12;4.15;;;3.85;;
15699;SDS011;7950;42.744;23.174;2022-08-05T12:16:02;4.60;;;4.20;;
15699;SDS011;7950;42.744;23.174;2022-08-05T12:18:42;4.05;;;3.65;;
15699;SDS011;7950;42.744;23.174;2022-08-05T12:21:20;4.65;;;4.25;;
15699;SDS011;7950;42.744;23.174;2022-08-05T12:24:02;5.30;;;4.00;;
15699;SDS011;7950;42.744;23.174;2022-08-05T12:26:33;4.32;;;3.92;;
15699;SDS011;7950;42.744;23.174;2022-08-05T12:29:04;4.35;;;4.05;;
15699;SDS011;7950;42.744;23.174;2022-08-05T12:31:45;6.00;;;4.30;;
15699;SDS011;7950;42.744;23.174;2022-08-05T12:34:20;4.57;;;4.18;;
15699;SDS011;7950;42.744;23.174;2022-08-05T12:36:54;4.82;;;4.22;;
15699;SDS011;7950;42.744;23.174;2022-08-05T12:39:26;5.63;;;4.22;;
15699;SDS011;7950;42.744;23.174;2022-08-05T12:42:07;6.55;;;4.20;;
15699;SDS011;7950;42.744;23.174;2022-08-05T12:44:40;6.20;;;4.07;;
15699;SDS011;7950;42.744;23.174;2022-08-05T12:47:13;4.38;;;3.90;;
15699;SDS011;7950;42.744;23.174;2022-08-05T12:49:56;4.65;;;3.80;;
15699;SDS011;7950;42.744;23.174;2022-08-05T12:52:31;4.45;;;4.05;;
15699;SDS011;7950;42.744;23.174;2022-08-05T12:55:20;7.03;;;4.70;;
15699;SDS011;7950;42.744;23.174;2022-08-05T12:57:52;7.20;;;4.40;;
15699;SDS011;7950;42.744;23.174;2022-08-05T13:00:43;4.68;;;4.28;;
15699;SDS011;7950;42.744;23.174;2022-08-05T13:03:37;4.80;;;4.40;;
15699;SDS011;7950;42.744;23.174;2022-08-05T13:06:13;4.70;;;4.30;;
15699;SDS011;7950;42.744;23.174;2022-08-05T13:08:45;4.57;;;4.10;;
15699;SDS011;7950;42.744;23.174;2022-08-05T13:11:20;4.78;;;4.35;;
15699;SDS011;7950;42.744;23.174;2022-08-05T13:14:09;5.07;;;4.22;;
15699;SDS011;7950;42.744;23.174;2022-08-05T13:16:46;6.00;;;4.43;;
15699;SDS011;7950;42.744;23.174;2022-08-05T13:19:22;4.97;;;4.13;;
15699;SDS011;7950;42.744;23.174;2022-08-05T13:22:13;5.35;;;4.63;;
15699;SDS011;7950;42.744;23.174;2022-08-05T13:24:55;5.15;;;4.18;;
15699;SDS011;7950;42.744;23.174;2022-08-05T13:27:35;5.70;;;4.40;;
15699;SDS011;7950;42.744;23.174;2022-08-05T13:30:07;4.97;;;4.20;;
15699;SDS011;7950;42.744;23.174;2022-08-05T13:32:57;4.63;;;4.25;;
15699;SDS011;7950;42.744;23.174;2022-08-05T13:35:27;4.57;;;4.13;;
15699;SDS011;7950;42.744;23.174;2022-08-05T13:38:17;4.53;;;4.13;;
15699;SDS011;7950;42.744;23.174;2022-08-05T13:41:01;4.30;;;4.00;;
15699;SDS011;7950;42.744;23.174;2022-08-05T13:43:32;6.00;;;4.38;;
15699;SDS011;7950;42.744;23.174;2022-08-05T13:46:20;4.80;;;4.40;;
15699;SDS011;7950;42.744;23.174;2022-08-05T13:49:09;4.82;;;4.32;;
15699;SDS011;7950;42.744;23.174;2022-08-05T13:51:39;4.60;;;4.18;;
15699;SDS011;7950;42.744;23.174;2022-08-05T13:54:12;6.05;;;3.97;;
15699;SDS011;7950;42.744;23.174;2022-08-05T13:56:53;4.10;;;3.78;;
15699;SDS011;7950;42.744;23.174;2022-08-05T13:59:23;3.70;;;3.40;;
15699;SDS011;7950;42.744;23.174;2022-08-05T14:01:53;5.63;;;4.28;;
15699;SDS011;7950;42.744;23.174;2022-08-05T14:04:25;4.85;;;4.00;;
15699;SDS011;7950;42.744;23.174;2022-08-05T14:07:15;4.93;;;4.18;;
15699;SDS011;7950;42.744;23.174;2022-08-05T14:10:09;8.98;;;4.03;;
15699;SDS011;7950;42.744;23.174;2022-08-05T14:12:54;4.20;;;3.90;;
15699;SDS011;7950;42.744;23.174;2022-08-05T14:15:25;4.10;;;3.78;;
15699;SDS011;7950;42.744;23.174;2022-08-05T14:18:15;4.15;;;3.63;;
15699;SDS011;7950;42.744;23.174;2022-08-05T14:20:49;4.20;;;3.80;;
15699;SDS011;7950;42.744;23.174;2022-08-05T14:23:20;5.28;;;4.18;;
15699;SDS011;7950;42.744;23.174;2022-08-05T14:25:52;4.40;;;4.10;;
15699;SDS011;7950;42.744;23.174;2022-08-05T14:28:24;4.60;;;4.20;;
15699;SDS011;7950;42.744;23.174;2022-08-05T14:30:55;6.55;;;3.95;;
15699;SDS011;7950;42.744;23.174;2022-08-05T14:33:26;4.93;;;4.13;;
15699;SDS011;7950;42.744;23.174;2022-08-05T14:36:14;4.35;;;3.92;;
15699;SDS011;7950;42.744;23.174;2022-08-05T14:38:47;4.47;;;4.03;;
15699;SDS011;7950;42.744;23.174;2022-08-05T14:41:15;4.45;;;4.05;;
15699;SDS011;7950;42.744;23.174;2022-08-05T14:43:46;4.00;;;3.67;;
15699;SDS011;7950;42.744;23.174;2022-08-05T14:46:29;4.47;;;3.85;;
15699;SDS011;7950;42.744;23.174;2022-08-05T14:49:01;3.97;;;3.67;;
15699;SDS011;7950;42.744;23.174;2022-08-05T14:51:34;9.80;;;4.30;;
15699;SDS011;7950;42.744;23.174;2022-08-05T14:54:03;4.50;;;4.20;;
15699;SDS011;7950;42.744;23.174;2022-08-05T14:56:53;5.85;;;4.20;;
15699;SDS011;7950;42.744;23.174;2022-08-05T14:59:26;4.82;;;3.95;;
15699;SDS011;7950;42.744;23.174;2022-08-05T15:02:02;6.07;;;4.15;;
15699;SDS011;7950;42.744;23.174;2022-08-05T15:04:41;4.07;;;3.78;;
15699;SDS011;7950;42.744;23.174;2022-08-05T15:07:15;4.05;;;3.72;;
15699;SDS011;7950;42.744;23.174;2022-08-05T15:10:04;5.88;;;3.88;;
15699;SDS011;7950;42.744;23.174;2022-08-05T15:12:35;4.10;;;3.67;;
15699;SDS011;7950;42.744;23.174;2022-08-05T15:15:24;5.25;;;3.97;;
15699;SDS011;7950;42.744;23.174;2022-08-05T15:18:14;4.88;;;3.53;;
15699;SDS011;7950;42.744;23.174;2022-08-05T15:20:43;5.78;;;3.95;;
15699;SDS011;7950;42.744;23.174;2022-08-05T15:23:13;4.32;;;3.90;;
15699;SDS011;7950;42.744;23.174;2022-08-05T15:25:41;4.28;;;3.75;;
15699;SDS011;7950;42.744;23.174;2022-08-05T15:28:19;4.70;;;3.92;;
15699;SDS011;7950;42.744;23.174;2022-08-05T15:30:57;4.43;;;4.03;;
15699;SDS011;7950;42.744;23.174;2022-08-05T15:33:30;4.63;;;4.03;;
15699;SDS011;7950;42.744;23.174;2022-08-05T15:36:18;4.63;;;3.80;;
15699;SDS011;7950;42.744;23.174;2022-08-05T15:38:51;4.03;;;3.72;;
15699;SDS011;7950;42.744;23.174;2022-08-05T15:41:40;4.32;;;3.95;;
15699;SDS011;7950;42.744;23.174;2022-08-05T15:44:24;4.25;;;3.83;;
15699;SDS011;7950;42.744;23.174;2022-08-05T15:46:53;4.35;;;3.80;;
15699;SDS011;7950;42.744;23.174;2022-08-05T15:49:23;5.25;;;3.90;;
15699;SDS011;7950;42.744;23.174;2022-08-05T15:52:12;5.30;;;3.65;;
15699;SDS011;7950;42.744;23.174;2022-08-05T15:55:00;3.97;;;3.35;;
15699;SDS011;7950;42.744;23.174;2022-08-05T15:57:41;5.13;;;3.78;;
15699;SDS011;7950;42.744;23.174;2022-08-05T16:00:14;4.13;;;3.72;;
15699;SDS011;7950;42.744;23.174;2022-08-05T16:02:58;4.47;;;4.10;;
15699;SDS011;7950;42.744;23.174;2022-08-05T16:05:28;12.80;;;4.00;;
15699;SDS011;7950;42.744;23.174;2022-08-05T16:07:57;4.18;;;3.78;;
15699;SDS011;7950;42.744;23.174;2022-08-05T16:13:19;3.83;;;3.53;;
15699;SDS011;7950;42.744;23.174;2022-08-05T16:15:59;4.10;;;3.70;;
15699;SDS011;7950;42.744;23.174;2022-08-05T16:18:29;4.65;;;3.95;;
15699;SDS011;7950;42.744;23.174;2022-08-05T16:21:00;4.00;;;3.60;;
15699;SDS011;7950;42.744;23.174;2022-08-05T16:23:30;3.90;;;3.60;;
15699;SDS011;7950;42.744;23.174;2022-08-05T16:26:18;3.97;;;3.58;;
15699;SDS011;7950;42.744;23.174;2022-08-05T16:28:52;27.33;;;5.10;;
15699;SDS011;7950;42.744;23.174;2022-08-05T16:34:23;4.20;;;3.80;;
15699;SDS011;7950;42.744;23.174;2022-08-05T16:36:56;4.18;;;3.78;;
15699;SDS011;7950;42.744;23.174;2022-08-05T16:39:25;3.90;;;3.60;;
15699;SDS011;7950;42.744;23.174;2022-08-05T16:42:13;5.75;;;3.90;;
15699;SDS011;7950;42.744;23.174;2022-08-05T16:44:53;15.57;;;4.15;;